createdAt,value
2023-02-28T00:01:56.193Z,15.53
2023-02-28T00:04:25.644Z,13.57
2023-02-28T00:06:57.970Z,14.13
2023-02-28T00:09:28.659Z,14.23
2023-02-28T00:11:59.308Z,16.80
2023-02-28T00:14:28.845Z,11.40
2023-02-28T00:17:00.491Z,14.67
2023-02-28T00:19:30.175Z,17.03
2023-02-28T00:22:02.448Z,15.03
2023-02-28T00:24:41.294Z,14.70
2023-02-28T00:27:18.809Z,15.67
2023-02-28T00:29:55.020Z,14.50
2023-02-28T00:32:24.190Z,14.03
2023-02-28T00:35:00.996Z,17.97
2023-02-28T00:37:30.894Z,21.33
2023-02-28T00:40:00.116Z,16.50
2023-02-28T00:42:32.022Z,15.23
2023-02-28T00:45:05.397Z,14.13
2023-02-28T00:47:37.000Z,18.20
2023-02-28T00:50:11.469Z,20.17
2023-02-28T00:52:45.017Z,12.20
2023-02-28T00:55:23.615Z,20.87
2023-02-28T00:57:52.621Z,15.10
2023-02-28T01:00:24.850Z,17.63
2023-02-28T01:02:55.713Z,13.73
2023-02-28T01:05:28.114Z,15.53
2023-02-28T01:07:57.733Z,15.13
2023-02-28T01:10:27.507Z,19.53
2023-02-28T01:12:59.489Z,17.53
2023-02-28T01:15:36.878Z,18.90
2023-02-28T01:18:09.298Z,15.73
2023-02-28T01:20:39.270Z,16.40
2023-02-28T01:23:24.614Z,17.20
2023-02-28T01:25:56.408Z,14.93
2023-02-28T01:28:30.476Z,15.83
2023-02-28T01:31:02.100Z,15.73
2023-02-28T01:33:36.097Z,18.03
2023-02-28T01:36:05.699Z,17.00
2023-02-28T01:38:46.494Z,15.53
2023-02-28T01:41:19.766Z,17.73
2023-02-28T01:44:10.437Z,12.80
2023-02-28T01:46:39.722Z,16.90
2023-02-28T01:49:11.736Z,15.43
2023-02-28T01:51:51.654Z,17.03
2023-02-28T01:54:32.136Z,16.13
2023-02-28T01:57:08.622Z,15.90
2023-02-28T01:59:47.418Z,16.60
2023-02-28T02:02:27.221Z,16.30
2023-02-28T02:05:01.531Z,19.43
2023-02-28T02:07:33.323Z,17.63
2023-02-28T02:10:12.722Z,18.60
2023-02-28T02:13:23.793Z,14.30
2023-02-28T02:16:02.799Z,15.57
2023-02-28T02:18:36.672Z,15.90
2023-02-28T02:21:54.633Z,15.90
2023-02-28T02:24:50.320Z,20.33
2023-02-28T02:27:40.766Z,15.93
2023-02-28T02:30:49.228Z,15.80
2023-02-28T02:33:50.512Z,11.70
2023-02-28T02:36:25.547Z,18.90
2023-02-28T02:39:00.756Z,18.90
2023-02-28T02:41:44.532Z,18.53
2023-02-28T02:44:25.108Z,14.50
2023-02-28T02:47:02.120Z,17.73
2023-02-28T02:49:44.939Z,17.07
2023-02-28T02:52:20.009Z,18.43
2023-02-28T02:54:56.184Z,16.97
2023-02-28T02:57:36.679Z,17.30
2023-02-28T03:00:16.455Z,14.13
2023-02-28T03:02:49.357Z,18.10
2023-02-28T03:05:23.167Z,14.87
2023-02-28T03:07:58.132Z,16.37
2023-02-28T03:10:39.553Z,20.10
2023-02-28T03:13:17.221Z,16.47
2023-02-28T03:16:00.393Z,16.80
2023-02-28T03:18:35.002Z,15.97
2023-02-28T03:21:11.966Z,19.03
2023-02-28T03:23:45.513Z,15.57
2023-02-28T03:26:25.840Z,16.60
2023-02-28T03:29:03.607Z,16.80
2023-02-28T03:31:38.154Z,14.67
2023-02-28T03:34:13.148Z,14.67
2023-02-28T03:36:48.812Z,15.20
2023-02-28T03:39:24.325Z,14.20
2023-02-28T03:42:04.256Z,14.43
2023-02-28T03:44:37.432Z,14.67
2023-02-28T03:47:10.872Z,19.67
2023-02-28T03:49:48.809Z,13.43
2023-02-28T03:52:22.050Z,14.83
2023-02-28T03:54:59.193Z,15.20
2023-02-28T03:57:37.266Z,16.07
2023-02-28T04:00:10.093Z,16.30
2023-02-28T04:02:45.824Z,19.37
2023-02-28T04:05:20.005Z,15.43
2023-02-28T04:07:50.993Z,16.37
2023-02-28T04:10:23.119Z,17.40
2023-02-28T04:13:03.487Z,21.13
2023-02-28T04:15:33.778Z,16.50
2023-02-28T04:18:05.541Z,16.40
2023-02-28T04:20:46.681Z,13.70
2023-02-28T04:23:21.422Z,20.10
2023-02-28T04:26:01.400Z,17.07
2023-02-28T04:28:29.587Z,17.57
2023-02-28T04:31:02.944Z,17.93
2023-02-28T04:33:34.516Z,16.27
2023-02-28T04:36:08.061Z,14.53
2023-02-28T04:38:38.143Z,16.50
2023-02-28T04:41:25.972Z,18.13
2023-02-28T04:43:57.832Z,18.30
2023-02-28T04:46:35.547Z,18.53
2023-02-28T04:49:05.420Z,16.93
2023-02-28T04:51:36.389Z,17.23
2023-02-28T04:54:05.858Z,12.37
2023-02-28T04:56:38.096Z,21.07
2023-02-28T04:59:10.495Z,18.37
2023-02-28T05:01:45.914Z,20.73
2023-02-28T05:04:14.007Z,17.87
2023-02-28T05:06:42.755Z,14.27
2023-02-28T05:09:21.380Z,17.07
2023-02-28T05:11:58.473Z,14.53
2023-02-28T05:14:29.254Z,18.43
2023-02-28T05:17:02.117Z,19.73
2023-02-28T05:19:46.249Z,16.50
2023-02-28T05:22:21.923Z,16.80
2023-02-28T05:24:52.032Z,18.70
2023-02-28T05:27:37.115Z,14.37
2023-02-28T05:30:14.320Z,19.47
2023-02-28T05:32:52.769Z,16.70
2023-02-28T05:35:22.182Z,18.07
2023-02-28T05:37:53.931Z,23.67
2023-02-28T05:40:23.467Z,17.00
2023-02-28T05:42:56.412Z,20.03
2023-02-28T05:45:27.178Z,18.30
2023-02-28T05:47:58.232Z,20.07
2023-02-28T05:50:33.474Z,26.50
2023-02-28T05:53:02.729Z,27.50
2023-02-28T05:55:32.095Z,22.13
2023-02-28T05:58:05.234Z,21.43
2023-02-28T06:05:28.141Z,25.30
2023-02-28T06:08:03.085Z,20.10
2023-02-28T06:10:32.763Z,21.27
2023-02-28T06:13:12.862Z,21.80
2023-02-28T06:15:49.819Z,31.20
2023-02-28T06:18:23.323Z,24.03
2023-02-28T06:20:57.464Z,24.00
2023-02-28T06:23:25.718Z,22.10
2023-02-28T06:26:01.612Z,19.93
2023-02-28T06:28:35.100Z,20.33
2023-02-28T06:31:12.000Z,18.50
2023-02-28T06:33:41.256Z,19.10
2023-02-28T06:36:10.473Z,24.10
2023-02-28T06:38:52.512Z,19.17
2023-02-28T06:41:44.618Z,24.13
2023-02-28T06:44:37.162Z,30.60
2023-02-28T06:47:07.844Z,28.37
2023-02-28T06:49:40.217Z,51.80
2023-02-28T06:52:17.844Z,68.17
2023-02-28T06:54:48.503Z,66.80
2023-02-28T06:57:19.953Z,47.70
2023-02-28T06:59:59.904Z,53.97
2023-02-28T07:02:38.628Z,104.57
2023-02-28T07:05:08.295Z,102.30
2023-02-28T07:07:44.750Z,80.77
2023-02-28T07:10:16.111Z,39.97
2023-02-28T07:12:45.773Z,42.13
2023-02-28T07:15:20.960Z,38.23
2023-02-28T07:17:52.047Z,25.13
2023-02-28T07:20:21.830Z,34.33
2023-02-28T07:23:02.383Z,19.87
2023-02-28T07:25:34.111Z,19.97
2023-02-28T07:28:09.466Z,22.60
2023-02-28T07:30:40.622Z,31.97
2023-02-28T07:33:18.455Z,38.63
2023-02-28T07:35:55.269Z,36.20
2023-02-28T07:38:23.958Z,24.90
2023-02-28T07:40:58.840Z,26.60
2023-02-28T07:43:28.223Z,26.50
2023-02-28T07:46:06.086Z,25.80
2023-02-28T07:48:35.377Z,20.10
2023-02-28T07:51:03.992Z,19.70
2023-02-28T07:53:35.294Z,22.40
2023-02-28T07:56:16.884Z,19.83
2023-02-28T07:58:45.997Z,22.00
2023-02-28T08:01:25.427Z,22.40
2023-02-28T08:03:58.124Z,24.20
2023-02-28T08:06:28.298Z,20.03
2023-02-28T08:08:59.458Z,23.73
2023-02-28T08:11:31.983Z,22.80
2023-02-28T08:14:03.245Z,23.37
2023-02-28T08:16:34.063Z,22.07
2023-02-28T08:19:02.790Z,22.77
2023-02-28T08:21:34.682Z,25.17
2023-02-28T08:24:02.838Z,21.83
2023-02-28T08:26:33.063Z,22.50
2023-02-28T08:29:10.463Z,20.23
2023-02-28T08:31:50.815Z,19.70
2023-02-28T08:34:21.248Z,19.67
2023-02-28T08:36:50.451Z,23.40
2023-02-28T08:39:21.115Z,27.73
2023-02-28T08:42:02.065Z,21.20
2023-02-28T08:44:35.961Z,19.80
2023-02-28T08:47:13.002Z,21.97
2023-02-28T08:49:42.523Z,23.53
2023-02-28T08:52:13.276Z,20.60
2023-02-28T08:54:45.353Z,21.03
2023-02-28T08:57:16.192Z,24.33
2023-02-28T08:59:55.156Z,20.90
2023-02-28T09:02:28.368Z,21.83
2023-02-28T09:04:59.211Z,23.57
2023-02-28T09:07:28.128Z,23.00
2023-02-28T09:10:03.813Z,28.90
2023-02-28T09:12:35.939Z,30.13
2023-02-28T09:15:06.368Z,22.73
2023-02-28T09:17:41.548Z,21.03
2023-02-28T09:22:55.871Z,19.47
2023-02-28T09:25:27.632Z,19.17
2023-02-28T09:28:00.372Z,16.07
2023-02-28T09:30:28.632Z,19.97
2023-02-28T09:33:00.666Z,17.50
2023-02-28T09:35:39.817Z,16.43
2023-02-28T09:38:09.879Z,21.67
2023-02-28T09:40:44.170Z,16.90
2023-02-28T09:43:21.038Z,21.50
2023-02-28T09:45:53.870Z,21.10
2023-02-28T09:48:29.952Z,22.63
2023-02-28T09:51:05.267Z,20.90
2023-02-28T09:53:36.219Z,21.53
2023-02-28T09:56:12.109Z,21.70
2023-02-28T09:58:49.282Z,19.93
2023-02-28T10:01:36.315Z,22.93
2023-02-28T10:04:18.162Z,21.57
2023-02-28T10:06:56.825Z,20.67
2023-02-28T10:09:28.168Z,21.97
2023-02-28T10:12:07.756Z,21.53
2023-02-28T10:14:45.354Z,28.77
2023-02-28T10:17:19.179Z,27.63
2023-02-28T10:20:00.291Z,23.03
2023-02-28T10:22:38.767Z,22.90
2023-02-28T10:25:19.592Z,29.53
2023-02-28T10:27:51.812Z,17.90
2023-02-28T10:30:22.201Z,20.00
2023-02-28T10:32:54.862Z,19.40
2023-02-28T10:35:31.152Z,24.00
2023-02-28T10:38:03.522Z,20.10
2023-02-28T10:40:38.857Z,20.57
2023-02-28T10:43:23.269Z,30.80
2023-02-28T10:46:04.490Z,24.03
2023-02-28T10:48:49.951Z,23.70
2023-02-28T10:51:26.345Z,21.50
2023-02-28T10:54:07.242Z,20.33
2023-02-28T10:56:40.964Z,22.53
2023-02-28T10:59:39.090Z,27.20
2023-02-28T11:05:22.085Z,27.60
2023-02-28T11:07:57.822Z,28.20
2023-02-28T11:10:31.161Z,20.03
2023-02-28T11:13:01.187Z,21.80
2023-02-28T11:15:39.054Z,17.30
2023-02-28T11:18:29.109Z,19.00
2023-02-28T11:21:00.718Z,18.10
2023-02-28T11:23:32.234Z,19.50
2023-02-28T11:26:05.752Z,17.40
2023-02-28T11:28:45.368Z,16.93
2023-02-28T11:31:42.095Z,20.77
2023-02-28T11:34:30.171Z,16.73
2023-02-28T11:37:01.846Z,17.00
2023-02-28T11:39:37.881Z,17.90
2023-02-28T11:42:31.592Z,19.30
2023-02-28T11:45:27.912Z,17.07
2023-02-28T11:48:04.334Z,20.70
2023-02-28T11:50:56.391Z,16.60
2023-02-28T11:53:43.518Z,19.10
2023-02-28T11:56:23.201Z,19.90
2023-02-28T11:59:04.007Z,17.30
2023-02-28T12:01:50.758Z,16.53
2023-02-28T12:04:33.060Z,21.33
2023-02-28T12:07:09.664Z,21.00
2023-02-28T12:09:49.522Z,17.70
2023-02-28T12:12:40.930Z,21.40
2023-02-28T12:15:46.091Z,22.77
2023-02-28T12:18:34.887Z,21.90
2023-02-28T12:21:15.038Z,20.97
2023-02-28T12:24:22.044Z,20.80
2023-02-28T12:27:00.560Z,19.60
2023-02-28T12:29:39.638Z,17.30
2023-02-28T12:32:12.483Z,15.30
2023-02-28T12:34:49.517Z,13.90
2023-02-28T12:37:28.202Z,13.97
2023-02-28T12:40:08.522Z,13.80
2023-02-28T12:42:41.899Z,16.73
2023-02-28T12:45:31.352Z,16.20
2023-02-28T12:48:04.835Z,12.63
2023-02-28T12:50:37.964Z,14.37
2023-02-28T12:53:13.745Z,23.20
2023-02-28T12:55:45.570Z,17.23
2023-02-28T12:58:22.464Z,18.80
2023-02-28T13:01:33.618Z,16.90
2023-02-28T13:04:37.959Z,23.97
2023-02-28T13:07:43.529Z,13.00
2023-02-28T13:10:16.490Z,13.67
2023-02-28T13:12:55.669Z,12.33
2023-02-28T13:15:30.635Z,12.90
2023-02-28T13:18:10.215Z,12.63
2023-02-28T13:20:52.993Z,14.73
2023-02-28T13:23:42.897Z,9.63
2023-02-28T13:26:13.867Z,12.00
2023-02-28T13:29:01.517Z,10.83
2023-02-28T13:31:30.511Z,10.90
2023-02-28T13:34:28.048Z,16.03
2023-02-28T13:37:37.375Z,15.17
2023-02-28T13:40:39.731Z,13.33
2023-02-28T13:43:22.610Z,12.67
2023-02-28T13:46:15.882Z,11.80
2023-02-28T13:48:44.186Z,11.13
2023-02-28T13:51:43.055Z,17.43
2023-02-28T13:54:25.258Z,9.80
2023-02-28T13:57:05.795Z,11.80
2023-02-28T13:59:39.570Z,13.20
2023-02-28T14:02:36.822Z,13.77
2023-02-28T14:05:08.940Z,14.60
2023-02-28T14:07:56.237Z,13.73
2023-02-28T14:10:34.568Z,12.80
2023-02-28T14:13:15.167Z,12.30
2023-02-28T14:15:49.491Z,17.97
2023-02-28T14:18:28.527Z,17.70
2023-02-28T14:21:06.647Z,14.00
2023-02-28T14:23:58.923Z,12.83
2023-02-28T14:26:57.588Z,15.40
2023-02-28T14:29:40.825Z,12.07
2023-02-28T14:32:24.579Z,11.97
2023-02-28T14:35:05.492Z,12.67
2023-02-28T14:37:42.071Z,14.43
2023-02-28T14:40:23.720Z,15.00
2023-02-28T14:42:58.701Z,11.97
2023-02-28T14:45:31.563Z,15.90
2023-02-28T14:48:03.485Z,14.50
2023-02-28T14:50:36.488Z,14.80
2023-02-28T14:53:11.526Z,14.90
2023-02-28T14:55:48.609Z,12.40
2023-02-28T14:58:30.146Z,13.70
2023-02-28T15:01:01.352Z,13.50
2023-02-28T15:03:42.364Z,16.33
2023-02-28T15:06:18.881Z,12.83
2023-02-28T15:08:50.921Z,18.50
2023-02-28T15:11:25.577Z,12.40
2023-02-28T15:14:07.956Z,13.63
2023-02-28T15:16:46.645Z,12.17
2023-02-28T15:19:21.324Z,18.50
2023-02-28T15:21:55.297Z,15.00
2023-02-28T15:24:36.420Z,17.90
2023-02-28T15:27:09.128Z,17.03
2023-02-28T15:29:49.259Z,15.97
2023-02-28T15:32:32.964Z,15.67
2023-02-28T15:35:22.434Z,13.40
2023-02-28T15:38:06.520Z,16.40
2023-02-28T15:40:42.401Z,17.30
2023-02-28T15:43:23.080Z,17.70
2023-02-28T15:45:54.157Z,16.67
2023-02-28T15:48:25.596Z,17.40
2023-02-28T15:50:58.894Z,15.97
2023-02-28T15:53:31.046Z,15.73
2023-02-28T15:56:08.631Z,17.10
2023-02-28T15:58:43.573Z,15.43
2023-02-28T16:01:31.836Z,13.77
2023-02-28T16:04:07.517Z,12.53
2023-02-28T16:07:06.201Z,15.53
2023-02-28T16:09:40.969Z,16.83
2023-02-28T16:12:14.588Z,14.33
2023-02-28T16:14:55.149Z,14.03
2023-02-28T16:17:28.606Z,14.57
2023-02-28T16:20:07.938Z,19.70
2023-02-28T16:22:42.755Z,15.03
2023-02-28T16:25:22.365Z,14.53
2023-02-28T16:27:55.651Z,15.70
2023-02-28T16:30:27.709Z,16.07
2023-02-28T16:32:59.536Z,15.83
2023-02-28T16:35:40.078Z,13.80
2023-02-28T16:38:12.432Z,18.43
2023-02-28T16:40:53.491Z,15.20
2023-02-28T16:43:29.681Z,13.13
2023-02-28T16:46:18.200Z,18.30
2023-02-28T16:48:54.424Z,17.93
2023-02-28T16:51:34.319Z,16.93
2023-02-28T16:54:10.555Z,14.50
2023-02-28T16:56:40.745Z,12.90
2023-02-28T16:59:21.853Z,14.77
2023-02-28T17:02:13.054Z,16.90
2023-02-28T17:04:46.362Z,14.20
2023-02-28T17:07:29.497Z,15.63
2023-02-28T17:10:00.058Z,12.67
2023-02-28T17:12:33.791Z,16.00
2023-02-28T17:15:11.463Z,18.60
2023-02-28T17:17:52.141Z,18.13
2023-02-28T17:20:31.821Z,15.57
2023-02-28T17:23:10.770Z,15.53
2023-02-28T17:25:40.827Z,16.03
2023-02-28T17:28:13.040Z,19.47
2023-02-28T17:30:48.906Z,17.27
2023-02-28T17:33:19.466Z,16.10
2023-02-28T17:36:00.440Z,18.80
2023-02-28T17:38:35.446Z,18.37
2023-02-28T17:41:16.356Z,15.73
2023-02-28T17:43:52.008Z,14.87
2023-02-28T17:46:30.699Z,15.77
2023-02-28T17:49:03.568Z,15.23
2023-02-28T17:51:43.892Z,17.83
2023-02-28T17:54:23.282Z,15.17
2023-02-28T17:57:19.160Z,21.67
2023-02-28T17:59:53.429Z,15.63
2023-02-28T18:02:38.754Z,25.73
2023-02-28T18:05:16.238Z,19.70
2023-02-28T18:08:11.919Z,23.63
2023-02-28T18:10:50.041Z,22.17
2023-02-28T18:13:31.231Z,21.23
2023-02-28T18:16:04.790Z,19.37
2023-02-28T18:18:39.919Z,23.27
2023-02-28T18:21:29.182Z,20.27
2023-02-28T18:24:04.452Z,18.77
2023-02-28T18:26:49.699Z,22.47
2023-02-28T18:29:23.534Z,17.20
2023-02-28T18:32:06.974Z,17.40
2023-02-28T18:34:42.139Z,25.57
2023-02-28T18:37:30.086Z,19.97
2023-02-28T18:40:04.760Z,19.07
2023-02-28T18:42:45.145Z,19.50
2023-02-28T18:45:15.547Z,19.87
2023-02-28T18:47:48.015Z,15.63
2023-02-28T18:50:26.725Z,21.13
2023-02-28T18:53:03.027Z,20.47
2023-02-28T18:55:44.464Z,13.10
2023-02-28T18:58:45.712Z,15.90
2023-02-28T19:01:22.647Z,15.43
2023-02-28T19:04:12.538Z,18.90
2023-02-28T19:06:43.720Z,16.70
2023-02-28T19:09:29.827Z,17.67
2023-02-28T19:12:11.852Z,22.90
2023-02-28T19:14:44.280Z,21.10
2023-02-28T19:17:22.297Z,19.13
2023-02-28T19:19:54.708Z,20.27
2023-02-28T19:22:26.997Z,17.37
2023-02-28T19:25:07.673Z,21.30
2023-02-28T19:27:36.930Z,17.67
2023-02-28T19:30:23.909Z,18.77
2023-02-28T19:33:05.612Z,17.53
2023-02-28T19:35:51.323Z,18.50
2023-02-28T19:38:27.844Z,17.47
2023-02-28T19:41:19.031Z,16.07
2023-02-28T19:43:56.434Z,17.17
2023-02-28T19:46:34.897Z,18.10
2023-02-28T19:49:18.859Z,19.07
2023-02-28T19:51:50.137Z,14.27
2023-02-28T19:54:26.128Z,18.00
2023-02-28T19:57:10.964Z,20.40
2023-02-28T19:59:51.981Z,19.47
2023-02-28T20:02:25.511Z,16.90
2023-02-28T20:05:15.070Z,25.70
2023-02-28T20:07:46.496Z,22.10
2023-02-28T20:10:26.612Z,22.70
2023-02-28T20:13:05.066Z,20.67
2023-02-28T20:15:35.751Z,20.97
2023-02-28T20:18:08.654Z,26.23
2023-02-28T20:20:42.824Z,19.77
2023-02-28T20:23:17.169Z,22.50
2023-02-28T20:25:51.847Z,20.60
2023-02-28T20:28:35.708Z,23.33
2023-02-28T20:31:16.110Z,25.00
2023-02-28T20:33:59.905Z,27.83
2023-02-28T20:36:45.263Z,26.60
2023-02-28T20:39:22.991Z,24.83
2023-02-28T20:42:04.687Z,24.07
2023-02-28T20:44:47.034Z,23.40
2023-02-28T20:47:28.498Z,28.33
2023-02-28T20:49:58.924Z,22.23
2023-02-28T20:52:40.599Z,20.10
2023-02-28T20:55:21.581Z,27.87
2023-02-28T20:58:02.345Z,21.87
2023-02-28T21:00:40.816Z,26.13
2023-02-28T21:03:11.539Z,28.03
2023-02-28T21:05:43.670Z,24.43
2023-02-28T21:08:27.393Z,26.77
2023-02-28T21:11:00.281Z,26.40
2023-02-28T21:13:32.074Z,26.40
2023-02-28T21:16:11.057Z,30.50
2023-02-28T21:18:46.407Z,26.43
2023-02-28T21:21:21.056Z,24.90
2023-02-28T21:23:59.533Z,30.80
2023-02-28T21:26:33.620Z,29.70
2023-02-28T21:29:06.084Z,29.43
2023-02-28T21:31:41.348Z,29.80
2023-02-28T21:34:18.675Z,27.50
2023-02-28T21:36:49.825Z,30.10
2023-02-28T21:39:25.702Z,24.47
2023-02-28T21:42:00.610Z,35.63
2023-02-28T21:44:40.664Z,29.87
2023-02-28T21:47:24.606Z,34.17
2023-02-28T21:50:02.677Z,30.40
2023-02-28T21:52:33.450Z,31.30
2023-02-28T21:55:03.221Z,29.43
2023-02-28T21:57:39.525Z,31.73
2023-02-28T22:00:13.597Z,32.30
2023-02-28T22:02:46.220Z,29.40
2023-02-28T22:05:19.918Z,28.67
2023-02-28T22:07:51.500Z,27.50
2023-02-28T22:10:34.614Z,30.00
2023-02-28T22:13:05.941Z,28.80
2023-02-28T22:15:37.861Z,33.40
2023-02-28T22:18:10.741Z,34.63
2023-02-28T22:20:52.091Z,32.40
2023-02-28T22:23:21.508Z,32.27
2023-02-28T22:25:56.178Z,30.43
2023-02-28T22:28:32.653Z,31.03
2023-02-28T22:31:03.470Z,29.50
2023-02-28T22:33:36.944Z,30.73
2023-02-28T22:36:14.563Z,37.87
2023-02-28T22:38:46.995Z,28.30
2023-02-28T22:41:19.388Z,30.23
2023-02-28T22:43:54.434Z,27.73
2023-02-28T22:46:25.287Z,28.93
2023-02-28T22:49:00.214Z,34.87
2023-02-28T22:51:32.241Z,31.10
2023-02-28T22:54:08.142Z,34.30
2023-02-28T22:56:37.995Z,32.40
2023-02-28T22:59:20.154Z,35.27
2023-02-28T23:01:53.350Z,35.27
2023-02-28T23:04:49.047Z,34.03
2023-02-28T23:07:25.978Z,35.03
2023-02-28T23:09:57.274Z,34.03
2023-02-28T23:12:29.677Z,34.17
2023-02-28T23:15:00.511Z,34.90
2023-02-28T23:17:28.965Z,33.90
2023-02-28T23:20:05.526Z,34.50
2023-02-28T23:22:36.639Z,35.73
2023-02-28T23:25:05.695Z,37.07
2023-02-28T23:27:37.616Z,30.17
2023-02-28T23:30:16.341Z,35.93
2023-02-28T23:32:47.439Z,39.57
2023-02-28T23:35:22.764Z,33.30
2023-02-28T23:37:56.307Z,37.13
2023-02-28T23:40:35.800Z,33.80
2023-02-28T23:43:16.599Z,35.20
2023-02-28T23:45:47.912Z,40.63
2023-02-28T23:48:29.871Z,39.10
2023-02-28T23:51:12.298Z,38.70
2023-02-28T23:53:45.035Z,36.77
2023-02-28T23:56:23.408Z,35.37
2023-02-28T23:58:52.535Z,32.47
